This is the latest recevied weather packets stored in our database for station/object OE-11213. If no packets are shown the sender has not sent any weather packets the latest 10 day(s).
| Time | Temp. | Humidity | Pressure | Rain* | Wind** | Luminosity | Snow |
|---|---|---|---|---|---|---|---|
| 1787890303 | 18.33° C | 95% | 1015.6 hPa | 0 mm | - | 0 W/m² | - |
| 1787889930 | 18.33° C | 95% | 1015.7 hPa | 0 mm | - | 0 W/m² | - |
| 1787889330 | 18.33° C | 94% | 1015.6 hPa | 0 mm | - | 0 W/m² | - |
| 1787888729 | 18.33° C | 95% | 1015.6 hPa | 0 mm | - | 0 W/m² | - |
| 1787888129 | 18.33° C | 94% | 1015.6 hPa | 0 mm | - | 0 W/m² | - |
| 1787887529 | 18.33° C | 95% | 1015.7 hPa | 0 mm | - | 0 W/m² | - |
| 1787886700 | 18.33° C | 94% | 1015.7 hPa | 0 mm | - | 0 W/m² | - |
| 1787885731 | 18.89° C | 92% | 1015.5 hPa | 0 mm | - | 0 W/m² | - |
| 1787884903 | 18.89° C | 93% | 1015.6 hPa | 0 mm | - | 0 W/m² | - |
| 1787884530 | 18.89° C | 94% | 1015.7 hPa | 0 mm | - | 0 W/m² | - |
| 1787883930 | 18.89° C | 92% | 1015.6 hPa | 0 mm | - | 0 W/m² | - |
| 1787883103 | 18.89° C | 92% | 1015.6 hPa | 0 mm | - | 0 W/m² | - |
| 1787882730 | 19.44° C | 92% | 1015.4 hPa | 0 mm | - | 0 W/m² | - |
| 1787882123 | 19.44° C | 92% | 1015.6 hPa | 0 mm | - | 0 W/m² | - |
| 1787881303 | 19.44° C | 90% | 1015.6 hPa | 0 mm | - | 0 W/m² | - |
| 1787880930 | 19.44° C | 91% | 1015.6 hPa | 0 mm | - | 0 W/m² | - |
| 1787880330 | 19.44° C | 91% | 1015.8 hPa | 0 mm | - | 0 W/m² | - |
| 1787879502 | 19.44° C | 90% | 1015.8 hPa | 0 mm | - | 0 W/m² | - |
| 1787879130 | 20° C | 88% | 1015.7 hPa | 0 mm | - | 0 W/m² | - |
| 1787878530 | 20° C | 88% | 1015.7 hPa | 0 mm | - | 0 W/m² | - |
| 1787877702 | 20° C | 89% | 1015.7 hPa | 0 mm | - | 0 W/m² | - |
| 1787877330 | 20° C | 90% | 1015.7 hPa | 0 mm | - | 0 W/m² | - |
| 1787876730 | 20.56° C | 86% | 1015.6 hPa | 0 mm | - | 0 W/m² | - |
| 1787875903 | 20° C | 89% | 1015.9 hPa | 0 mm | - | 0 W/m² | - |
| 1787875530 | 20.56° C | 87% | 1015.8 hPa | 0 mm | - | 0 W/m² | - |
* Rain latest hour (hover to see other rain measurements)
** Current wind speed in m/s (hover to see current wind gust speed)